createdAt,value
2022-12-25T00:01:24.109Z,82.24
2022-12-25T00:03:51.826Z,82.86
2022-12-25T00:06:19.257Z,82.49
2022-12-25T00:08:46.920Z,82.29
2022-12-25T00:11:14.434Z,81.69
2022-12-25T00:13:43.069Z,82.61
2022-12-25T00:16:10.678Z,82.96
2022-12-25T00:18:38.225Z,81.79
2022-12-25T00:21:05.805Z,81.72
2022-12-25T00:23:32.404Z,82.05
2022-12-25T00:25:59.995Z,82.92
2022-12-25T00:28:27.603Z,82.82
2022-12-25T00:30:55.208Z,82.96
2022-12-25T00:33:24.182Z,83.07
2022-12-25T00:35:51.371Z,83.19
2022-12-25T00:38:17.978Z,82.44
2022-12-25T00:40:46.558Z,82.78
2022-12-25T00:43:14.166Z,83.31
2022-12-25T00:45:40.670Z,82.54
2022-12-25T00:48:08.356Z,81.62
2022-12-25T00:50:36.937Z,82.71
2022-12-25T00:53:03.570Z,82.74
2022-12-25T00:55:31.182Z,82.54
2022-12-25T00:57:58.813Z,82.60
2022-12-25T01:00:26.366Z,82.67
2022-12-25T01:02:52.909Z,82.92
2022-12-25T01:05:19.396Z,82.67
2022-12-25T01:07:45.844Z,83.07
2022-12-25T01:10:12.693Z,83.06
2022-12-25T01:12:39.316Z,83.35
2022-12-25T01:15:07.895Z,82.98
2022-12-25T01:17:34.331Z,83.25
2022-12-25T01:20:01.092Z,82.98
2022-12-25T01:22:27.720Z,83.32
2022-12-25T01:24:56.797Z,83.03
2022-12-25T01:27:23.338Z,83.67
2022-12-25T01:29:49.790Z,83.22
2022-12-25T01:32:16.195Z,83.56
2022-12-25T01:34:42.723Z,82.98
2022-12-25T01:37:09.170Z,83.47
2022-12-25T01:39:35.581Z,83.13
2022-12-25T01:42:01.982Z,83.49
2022-12-25T01:44:28.443Z,81.63
2022-12-25T01:46:54.895Z,83.12
2022-12-25T01:49:21.357Z,83.05
2022-12-25T01:51:47.790Z,83.33
2022-12-25T01:54:14.238Z,83.23
2022-12-25T01:56:40.715Z,83.00
2022-12-25T01:59:07.149Z,82.65
2022-12-25T02:01:33.660Z,82.94
2022-12-25T02:04:00.218Z,83.17
2022-12-25T02:06:26.748Z,82.85
2022-12-25T02:08:53.199Z,82.92
2022-12-25T02:11:19.722Z,82.99
2022-12-25T02:13:46.194Z,82.51
2022-12-25T02:16:12.716Z,82.71
2022-12-25T02:18:39.215Z,83.19
2022-12-25T02:21:05.634Z,82.80
2022-12-25T02:23:32.055Z,82.60
2022-12-25T02:25:58.500Z,82.24
2022-12-25T02:28:24.937Z,82.16
2022-12-25T02:30:51.374Z,82.12
2022-12-25T02:33:17.860Z,82.27
2022-12-25T02:35:44.289Z,82.07
2022-12-25T02:38:10.708Z,82.98
2022-12-25T02:40:37.124Z,83.41
2022-12-25T02:43:03.557Z,83.60
2022-12-25T02:45:30.050Z,83.15
2022-12-25T02:47:56.481Z,82.92
2022-12-25T02:50:22.926Z,83.65
2022-12-25T02:52:49.383Z,82.89
2022-12-25T02:55:15.819Z,82.28
2022-12-25T02:57:42.221Z,82.29
2022-12-25T03:00:08.653Z,82.86
2022-12-25T03:02:35.141Z,82.63
2022-12-25T03:05:01.699Z,83.42
2022-12-25T03:07:28.141Z,83.14
2022-12-25T03:09:54.590Z,83.60
2022-12-25T03:12:21.068Z,83.51
2022-12-25T03:14:47.530Z,83.69
2022-12-25T03:17:14.015Z,83.18
2022-12-25T03:19:40.496Z,83.24
2022-12-25T03:22:07.078Z,83.36
2022-12-25T03:24:33.510Z,83.13
2022-12-25T03:26:59.963Z,83.18
2022-12-25T03:29:31.666Z,83.52
2022-12-25T03:31:58.354Z,83.47
2022-12-25T03:34:24.780Z,83.03
2022-12-25T03:36:51.217Z,83.03
2022-12-25T03:39:17.645Z,82.98
2022-12-25T03:41:44.078Z,82.83
2022-12-25T03:44:10.586Z,83.37
2022-12-25T03:46:37.109Z,83.13
2022-12-25T03:49:03.610Z,83.19
2022-12-25T03:51:30.076Z,83.08
2022-12-25T03:53:56.546Z,83.20
2022-12-25T03:56:22.984Z,83.35
2022-12-25T03:58:49.422Z,83.60
2022-12-25T04:01:16.043Z,82.70
2022-12-25T04:03:42.545Z,82.98
2022-12-25T04:06:09.015Z,83.17
2022-12-25T04:08:35.546Z,83.71
2022-12-25T04:11:01.991Z,83.31
2022-12-25T04:13:28.421Z,83.52
2022-12-25T04:15:54.929Z,83.98
2022-12-25T04:18:21.389Z,83.47
2022-12-25T04:20:47.870Z,83.93
2022-12-25T04:23:14.295Z,83.97
2022-12-25T04:25:40.718Z,83.81
2022-12-25T04:28:07.179Z,83.88
2022-12-25T04:30:33.629Z,84.24
2022-12-25T04:33:00.048Z,84.15
2022-12-25T04:35:26.505Z,84.25
2022-12-25T04:37:52.944Z,83.89
2022-12-25T04:40:19.373Z,83.53
2022-12-25T04:42:45.798Z,83.89
2022-12-25T04:45:12.234Z,83.81
2022-12-25T04:47:38.657Z,83.75
2022-12-25T04:50:05.922Z,83.89
2022-12-25T04:52:32.327Z,84.33
2022-12-25T04:54:58.770Z,84.64
2022-12-25T04:57:25.192Z,84.23
2022-12-25T04:59:51.641Z,84.18
2022-12-25T05:02:18.462Z,84.45
2022-12-25T05:04:45.158Z,83.91
2022-12-25T05:07:11.590Z,84.32
2022-12-25T05:09:38.008Z,83.69
2022-12-25T05:12:04.456Z,84.04
2022-12-25T05:14:30.951Z,83.91
2022-12-25T05:16:57.392Z,83.52
2022-12-25T05:19:23.833Z,83.71
2022-12-25T05:21:50.261Z,83.82
2022-12-25T05:24:16.683Z,83.67
2022-12-25T05:26:43.123Z,83.37
2022-12-25T05:29:09.539Z,83.58
2022-12-25T05:31:36.050Z,83.50
2022-12-25T05:34:02.544Z,83.68
2022-12-25T05:36:28.969Z,83.61
2022-12-25T05:38:55.380Z,83.02
2022-12-25T05:41:21.832Z,83.40
2022-12-25T05:43:48.228Z,83.44
2022-12-25T05:46:14.750Z,82.79
2022-12-25T05:48:41.248Z,83.03
2022-12-25T05:51:07.684Z,82.44
2022-12-25T05:53:34.084Z,83.50
2022-12-25T05:56:00.530Z,84.22
2022-12-25T05:58:26.956Z,84.08
2022-12-25T06:00:53.389Z,84.50
2022-12-25T06:03:19.892Z,84.11
2022-12-25T06:05:46.427Z,84.10
2022-12-25T06:08:12.859Z,84.58
2022-12-25T06:10:39.280Z,81.56
2022-12-25T06:13:05.710Z,82.21
2022-12-25T06:15:32.131Z,82.25
2022-12-25T06:17:58.527Z,82.08
2022-12-25T06:20:24.954Z,82.33
2022-12-25T06:22:51.355Z,80.84
2022-12-25T06:25:18.048Z,80.41
2022-12-25T06:27:44.469Z,80.83
2022-12-25T06:30:10.912Z,81.47
2022-12-25T06:32:37.370Z,83.13
2022-12-25T06:35:03.792Z,83.39
2022-12-25T06:37:30.217Z,83.76
2022-12-25T06:39:56.629Z,80.06
2022-12-25T06:42:23.048Z,78.74
2022-12-25T06:44:49.455Z,79.35
2022-12-25T06:47:15.862Z,79.93
2022-12-25T06:49:42.247Z,78.57
2022-12-25T06:52:08.662Z,81.03
2022-12-25T06:54:36.246Z,81.93
2022-12-25T06:57:02.692Z,82.30
2022-12-25T06:59:29.120Z,82.92
2022-12-25T07:01:55.773Z,82.71
2022-12-25T07:04:22.414Z,82.03
2022-12-25T07:06:48.843Z,82.08
2022-12-25T07:09:15.330Z,81.81
2022-12-25T07:11:41.776Z,81.72
2022-12-25T07:14:08.197Z,78.06
2022-12-25T07:16:34.660Z,78.74
2022-12-25T07:19:01.182Z,81.68
2022-12-25T07:21:27.629Z,82.46
2022-12-25T07:23:54.054Z,81.92
2022-12-25T07:26:20.480Z,83.02
2022-12-25T07:28:46.961Z,82.63
2022-12-25T07:31:13.407Z,83.15
2022-12-25T07:33:39.954Z,82.35
2022-12-25T07:36:06.428Z,83.22
2022-12-25T07:38:32.884Z,83.03
2022-12-25T07:40:59.308Z,82.80
2022-12-25T07:43:25.766Z,82.94
2022-12-25T07:45:52.224Z,82.69
2022-12-25T07:48:18.667Z,82.06
2022-12-25T07:50:45.080Z,82.14
2022-12-25T07:53:11.495Z,82.26
2022-12-25T07:55:37.947Z,82.32
2022-12-25T07:58:04.370Z,81.95
2022-12-25T08:00:33.737Z,82.31
2022-12-25T08:03:00.368Z,82.23
2022-12-25T08:05:26.968Z,81.97
2022-12-25T08:07:57.375Z,82.09
2022-12-25T08:10:24.552Z,82.44
2022-12-25T08:12:50.981Z,81.95
2022-12-25T08:15:17.421Z,82.18
2022-12-25T08:17:43.868Z,82.71
2022-12-25T08:20:10.294Z,82.61
2022-12-25T08:22:36.732Z,82.77
2022-12-25T08:25:03.144Z,82.51
2022-12-25T08:27:29.556Z,82.60
2022-12-25T08:29:55.975Z,82.87
2022-12-25T08:32:22.401Z,83.65
2022-12-25T08:34:48.818Z,82.87
2022-12-25T08:37:15.263Z,83.44
2022-12-25T08:39:41.708Z,83.48
2022-12-25T08:42:08.147Z,82.94
2022-12-25T08:44:34.598Z,83.44
2022-12-25T08:47:00.997Z,82.84
2022-12-25T08:49:27.407Z,82.50
2022-12-25T08:51:53.960Z,83.05
2022-12-25T08:54:20.399Z,83.30
2022-12-25T08:56:46.852Z,82.99
2022-12-25T08:59:13.290Z,82.82
2022-12-25T09:01:39.769Z,83.09
2022-12-25T09:04:06.237Z,83.35
2022-12-25T09:06:32.683Z,83.62
2022-12-25T09:08:59.139Z,83.02
2022-12-25T09:11:25.584Z,84.02
2022-12-25T09:13:51.987Z,83.58
2022-12-25T09:16:18.480Z,82.42
2022-12-25T09:18:44.920Z,82.67
2022-12-25T09:21:11.357Z,82.67
2022-12-25T09:23:37.825Z,82.39
2022-12-25T09:26:04.266Z,82.55
2022-12-25T09:28:30.735Z,82.35
2022-12-25T09:30:57.245Z,82.41
2022-12-25T09:33:23.753Z,82.79
2022-12-25T09:35:50.209Z,82.45
2022-12-25T09:38:16.664Z,82.70
2022-12-25T09:40:43.090Z,82.92
2022-12-25T09:43:09.515Z,81.86
2022-12-25T09:45:35.990Z,82.81
2022-12-25T09:48:02.590Z,82.65
2022-12-25T09:50:29.023Z,81.92
2022-12-25T09:52:55.499Z,82.18
2022-12-25T09:55:21.969Z,81.26
2022-12-25T09:57:48.417Z,81.83
2022-12-25T10:00:14.881Z,81.98
2022-12-25T10:02:41.489Z,81.83
2022-12-25T10:05:08.060Z,80.77
2022-12-25T10:07:34.523Z,80.97
2022-12-25T10:10:00.954Z,80.77
2022-12-25T10:12:27.450Z,80.96
2022-12-25T10:14:53.928Z,79.51
2022-12-25T10:17:20.353Z,81.96
2022-12-25T10:19:46.784Z,80.62
2022-12-25T10:22:13.231Z,81.87
2022-12-25T10:24:39.684Z,80.66
2022-12-25T10:27:06.078Z,81.84
2022-12-25T10:29:32.528Z,81.88
2022-12-25T10:31:58.934Z,81.64
2022-12-25T10:34:25.405Z,81.64
2022-12-25T10:36:51.846Z,81.36
2022-12-25T10:39:18.258Z,81.42
2022-12-25T10:41:44.695Z,82.08
2022-12-25T10:44:11.099Z,81.09
2022-12-25T10:46:37.561Z,81.82
2022-12-25T10:49:04.044Z,81.67
2022-12-25T10:51:30.514Z,81.40
2022-12-25T10:53:56.999Z,81.23
2022-12-25T10:56:23.436Z,81.16
2022-12-25T10:58:49.892Z,81.40
2022-12-25T11:01:16.443Z,80.91
2022-12-25T11:03:42.997Z,81.66
2022-12-25T11:06:09.439Z,81.12
2022-12-25T11:08:36.617Z,81.29
2022-12-25T11:11:03.052Z,81.87
2022-12-25T11:13:29.474Z,81.01
2022-12-25T11:15:56.021Z,81.88
2022-12-25T11:18:22.525Z,82.12
2022-12-25T11:20:49.002Z,81.62
2022-12-25T11:23:15.513Z,79.64
2022-12-25T11:25:41.982Z,81.69
2022-12-25T11:28:08.455Z,81.55
2022-12-25T11:30:34.883Z,81.43
2022-12-25T11:33:01.371Z,81.22
2022-12-25T11:35:27.887Z,81.23
2022-12-25T11:37:54.329Z,81.30
2022-12-25T11:40:20.777Z,80.72
2022-12-25T11:42:47.270Z,81.44
2022-12-25T11:45:13.717Z,79.97
2022-12-25T11:47:40.181Z,80.82
2022-12-25T11:50:06.662Z,80.15
2022-12-25T11:52:33.149Z,79.83
2022-12-25T11:54:59.619Z,80.76
2022-12-25T11:57:26.082Z,79.88
2022-12-25T11:59:52.554Z,79.95
2022-12-25T12:02:19.292Z,80.85
2022-12-25T12:04:45.806Z,80.87
2022-12-25T12:07:12.995Z,79.96
2022-12-25T12:09:39.419Z,80.66
2022-12-25T12:12:06.231Z,80.63
2022-12-25T12:14:33.853Z,79.95
2022-12-25T12:17:00.403Z,79.61
2022-12-25T12:19:28.016Z,79.74
2022-12-25T12:21:55.027Z,79.92
2022-12-25T12:24:22.227Z,77.69
2022-12-25T12:26:48.804Z,78.71
2022-12-25T12:29:15.402Z,79.86
2022-12-25T12:31:43.169Z,79.88
2022-12-25T12:34:10.091Z,77.93
2022-12-25T12:36:37.054Z,78.24
2022-12-25T12:39:03.567Z,77.97
2022-12-25T12:41:30.063Z,79.59
2022-12-25T12:43:56.468Z,77.51
2022-12-25T12:46:30.619Z,77.28
2022-12-25T12:48:58.239Z,78.46
2022-12-25T12:51:24.835Z,80.24
2022-12-25T12:53:51.576Z,80.37
2022-12-25T12:56:19.050Z,80.26
2022-12-25T12:58:46.646Z,78.03
2022-12-25T13:01:14.355Z,79.73
2022-12-25T13:03:41.352Z,79.26
2022-12-25T13:06:08.492Z,77.66
2022-12-25T13:08:36.093Z,79.33
2022-12-25T13:11:02.616Z,78.80
2022-12-25T13:13:29.121Z,79.88
2022-12-25T13:15:55.880Z,80.65
2022-12-25T13:18:23.697Z,81.43
2022-12-25T13:20:50.428Z,81.30
2022-12-25T13:23:17.013Z,80.51
2022-12-25T13:25:43.472Z,80.50
2022-12-25T13:28:10.192Z,80.09
2022-12-25T13:30:36.823Z,79.17
2022-12-25T13:33:03.473Z,80.18
2022-12-25T13:35:31.063Z,81.25
2022-12-25T13:37:58.688Z,80.06
2022-12-25T13:40:26.310Z,79.35
2022-12-25T13:42:54.924Z,81.32
2022-12-25T13:45:22.535Z,80.49
2022-12-25T13:47:54.946Z,81.03
2022-12-25T13:50:22.713Z,81.86
2022-12-25T13:52:50.322Z,81.45
2022-12-25T13:55:16.906Z,81.11
2022-12-25T13:57:44.550Z,79.30
2022-12-25T14:00:11.331Z,80.36
2022-12-25T14:02:38.120Z,80.59
2022-12-25T14:05:05.569Z,80.35
2022-12-25T14:07:32.096Z,80.77
2022-12-25T14:09:58.622Z,81.87
2022-12-25T14:12:25.390Z,78.68
2022-12-25T14:14:52.970Z,80.60
2022-12-25T14:17:19.568Z,78.92
2022-12-25T14:19:46.144Z,81.55
2022-12-25T14:22:13.820Z,81.44
2022-12-25T14:24:41.417Z,82.40
2022-12-25T14:27:08.995Z,81.93
2022-12-25T14:29:35.602Z,81.68
2022-12-25T14:32:03.168Z,81.79
2022-12-25T14:34:30.796Z,82.20
2022-12-25T14:36:57.380Z,81.73
2022-12-25T14:39:24.985Z,81.37
2022-12-25T14:41:51.551Z,82.22
2022-12-25T14:44:19.163Z,79.98
2022-12-25T14:46:45.793Z,81.32
2022-12-25T14:49:13.372Z,79.25
2022-12-25T14:51:40.965Z,80.40
2022-12-25T14:54:08.554Z,81.44
2022-12-25T14:56:35.156Z,81.84
2022-12-25T14:59:02.746Z,81.58
2022-12-25T15:01:29.447Z,82.18
2022-12-25T15:03:57.039Z,80.03
2022-12-25T15:06:23.624Z,81.83
2022-12-25T15:08:51.152Z,80.90
2022-12-25T15:11:17.618Z,81.99
2022-12-25T15:13:44.319Z,80.74
2022-12-25T15:16:12.025Z,81.44
2022-12-25T15:18:39.535Z,81.67
2022-12-25T15:21:07.156Z,80.59
2022-12-25T15:23:34.706Z,81.61
2022-12-25T15:26:02.331Z,80.74
2022-12-25T15:28:28.835Z,80.80
2022-12-25T15:30:56.549Z,80.36
2022-12-25T15:33:23.079Z,80.18
2022-12-25T15:35:50.735Z,80.87
2022-12-25T15:38:18.321Z,81.28
2022-12-25T15:40:46.962Z,79.89
2022-12-25T15:43:39.343Z,80.02
2022-12-25T15:46:01.248Z,81.68
2022-12-25T15:48:29.843Z,81.24
2022-12-25T15:50:56.440Z,81.25
2022-12-25T15:53:24.151Z,81.26
2022-12-25T15:55:54.611Z,81.67
2022-12-25T15:58:21.238Z,80.66
2022-12-25T16:00:49.828Z,81.60
2022-12-25T16:03:17.472Z,81.80
2022-12-25T16:05:45.026Z,81.60
2022-12-25T16:08:12.619Z,81.04
2022-12-25T16:10:40.480Z,81.77
2022-12-25T16:13:07.817Z,81.71
2022-12-25T16:15:34.485Z,82.35
2022-12-25T16:18:00.987Z,81.76
2022-12-25T16:20:27.387Z,81.18
2022-12-25T16:22:53.841Z,81.21
2022-12-25T16:25:20.279Z,82.39
2022-12-25T16:27:47.371Z,82.16
2022-12-25T16:30:14.951Z,82.08
2022-12-25T16:32:42.614Z,81.19
2022-12-25T16:35:09.603Z,81.74
2022-12-25T16:37:37.744Z,80.51
2022-12-25T16:40:05.344Z,80.73
2022-12-25T16:42:32.933Z,79.78
2022-12-25T16:44:59.576Z,79.45
2022-12-25T16:47:27.133Z,79.77
2022-12-25T16:49:55.734Z,80.02
2022-12-25T16:52:22.314Z,81.51
2022-12-25T16:54:48.923Z,81.92
2022-12-25T16:57:15.525Z,81.20
2022-12-25T16:59:43.127Z,81.09
2022-12-25T17:02:09.782Z,81.55
2022-12-25T17:04:36.343Z,82.44
2022-12-25T17:07:02.871Z,81.94
2022-12-25T17:09:29.336Z,82.25
2022-12-25T17:11:56.076Z,80.93
2022-12-25T17:14:24.685Z,80.39
2022-12-25T17:16:51.456Z,80.34
2022-12-25T17:19:18.915Z,80.66
2022-12-25T17:21:46.491Z,81.18
2022-12-25T17:24:14.084Z,82.05
2022-12-25T17:26:41.718Z,81.25
2022-12-25T17:29:09.300Z,82.25
2022-12-25T17:31:35.779Z,82.15
2022-12-25T17:34:02.354Z,82.07
2022-12-25T17:36:28.801Z,82.33
2022-12-25T17:38:55.292Z,82.45
2022-12-25T17:41:21.732Z,82.52
2022-12-25T17:43:48.164Z,81.42
2022-12-25T17:46:14.661Z,82.42
2022-12-25T17:48:41.130Z,82.05
2022-12-25T17:51:07.581Z,81.52
2022-12-25T17:53:34.005Z,82.29
2022-12-25T17:56:00.460Z,82.62
2022-12-25T17:58:26.896Z,82.72
2022-12-25T18:00:53.389Z,81.77
2022-12-25T18:03:20.088Z,83.02
2022-12-25T18:05:46.737Z,83.06
2022-12-25T18:08:13.214Z,81.87
2022-12-25T18:10:39.624Z,82.09
2022-12-25T18:13:06.036Z,82.46
2022-12-25T18:15:32.461Z,80.36
2022-12-25T18:17:58.883Z,81.99
2022-12-25T18:20:25.315Z,81.06
2022-12-25T18:22:51.737Z,81.42
2022-12-25T18:25:18.230Z,82.19
2022-12-25T18:27:44.665Z,81.58
2022-12-25T18:30:11.142Z,82.16
2022-12-25T18:32:37.586Z,82.33
2022-12-25T18:35:04.001Z,82.53
2022-12-25T18:37:34.460Z,84.04
2022-12-25T18:40:06.032Z,83.61
2022-12-25T18:42:32.471Z,83.93
2022-12-25T18:44:58.908Z,83.65
2022-12-25T18:47:25.372Z,82.96
2022-12-25T18:49:51.864Z,83.55
2022-12-25T18:52:49.907Z,84.04
2022-12-25T18:55:04.709Z,84.56
2022-12-25T18:57:31.122Z,84.43
2022-12-25T18:59:57.548Z,84.93
2022-12-25T19:02:24.028Z,84.30
2022-12-25T19:04:50.555Z,84.91
2022-12-25T19:07:17.066Z,84.48
2022-12-25T19:09:43.499Z,85.11
2022-12-25T19:12:09.950Z,84.91
2022-12-25T19:14:47.580Z,83.76
2022-12-25T19:17:14.734Z,84.09
2022-12-25T19:19:41.173Z,84.65
2022-12-25T19:22:07.640Z,84.93
2022-12-25T19:24:34.061Z,84.92
2022-12-25T19:27:00.532Z,84.21
2022-12-25T19:29:26.958Z,84.51
2022-12-25T19:31:53.427Z,84.11
2022-12-25T19:34:19.913Z,83.00
2022-12-25T19:36:46.335Z,83.58
2022-12-25T19:39:12.805Z,83.34
2022-12-25T19:41:39.281Z,83.70
2022-12-25T19:44:05.710Z,84.38
2022-12-25T19:46:32.188Z,84.64
2022-12-25T19:48:58.625Z,84.26
2022-12-25T19:51:25.064Z,84.20
2022-12-25T19:53:51.527Z,84.13
2022-12-25T19:56:17.948Z,84.37
2022-12-25T19:58:44.499Z,84.34
2022-12-25T20:01:11.096Z,84.51
2022-12-25T20:03:45.319Z,84.72
2022-12-25T20:06:12.631Z,84.43
2022-12-25T20:08:39.159Z,84.38
2022-12-25T20:11:05.613Z,84.46
2022-12-25T20:13:32.031Z,84.27
2022-12-25T20:15:58.479Z,84.65
2022-12-25T20:18:24.899Z,84.75
2022-12-25T20:20:51.361Z,84.52
2022-12-25T20:23:17.873Z,84.91
2022-12-25T20:25:44.297Z,84.78
2022-12-25T20:28:10.748Z,84.86
2022-12-25T20:30:37.194Z,84.94
2022-12-25T20:33:03.597Z,84.88
2022-12-25T20:35:30.074Z,84.86
2022-12-25T20:37:56.596Z,84.94
2022-12-25T20:40:23.044Z,85.09
2022-12-25T20:42:49.568Z,84.76
2022-12-25T20:45:15.998Z,85.17
2022-12-25T20:47:42.702Z,84.95
2022-12-25T20:50:09.160Z,85.39
2022-12-25T20:52:35.627Z,85.01
2022-12-25T20:55:02.097Z,85.40
2022-12-25T20:57:28.544Z,85.18
2022-12-25T20:59:55.017Z,85.41
2022-12-25T21:02:21.451Z,85.24
2022-12-25T21:05:02.582Z,85.82
2022-12-25T21:07:29.001Z,85.14
2022-12-25T21:09:55.434Z,85.34
2022-12-25T21:12:21.868Z,85.39
2022-12-25T21:14:48.281Z,85.52
2022-12-25T21:17:14.769Z,85.73
2022-12-25T21:19:41.244Z,85.28
2022-12-25T21:22:07.662Z,85.46
2022-12-25T21:24:34.116Z,85.01
2022-12-25T21:27:00.547Z,85.73
2022-12-25T21:29:26.988Z,85.38
2022-12-25T21:31:53.450Z,85.52
2022-12-25T21:34:19.886Z,85.51
2022-12-25T21:36:46.322Z,85.41
2022-12-25T21:39:12.763Z,85.23
2022-12-25T21:41:39.254Z,85.21
2022-12-25T21:44:05.745Z,85.55
2022-12-25T21:46:32.233Z,85.57
2022-12-25T21:48:58.819Z,85.99
2022-12-25T21:51:25.277Z,85.56
2022-12-25T21:53:51.707Z,85.33
2022-12-25T21:56:18.171Z,85.58
2022-12-25T21:58:44.634Z,85.71
2022-12-25T22:01:11.070Z,85.67
2022-12-25T22:03:37.628Z,85.69
2022-12-25T22:06:04.126Z,85.65
2022-12-25T22:08:30.568Z,85.72
2022-12-25T22:10:57.010Z,85.57
2022-12-25T22:13:23.636Z,85.55
2022-12-25T22:15:50.199Z,86.00
2022-12-25T22:18:16.657Z,85.70
2022-12-25T22:20:43.100Z,85.76
2022-12-25T22:23:09.527Z,85.67
2022-12-25T22:25:36.001Z,85.93
2022-12-25T22:28:02.570Z,85.34
2022-12-25T22:30:29.065Z,85.99
2022-12-25T22:32:55.722Z,86.07
2022-12-25T22:35:22.238Z,86.12
2022-12-25T22:37:48.705Z,86.12
2022-12-25T22:40:15.141Z,86.29
2022-12-25T22:42:41.580Z,86.06
2022-12-25T22:45:08.035Z,85.68
2022-12-25T22:47:34.520Z,85.75
2022-12-25T22:50:00.939Z,86.06
2022-12-25T22:52:27.375Z,85.80
2022-12-25T22:54:53.802Z,85.81
2022-12-25T22:57:20.249Z,85.87
2022-12-25T22:59:46.698Z,85.90
2022-12-25T23:02:13.240Z,85.87
2022-12-25T23:04:39.846Z,86.09
2022-12-25T23:07:06.320Z,86.36
2022-12-25T23:09:32.778Z,86.33
2022-12-25T23:11:59.286Z,86.45
2022-12-25T23:14:25.733Z,86.14
2022-12-25T23:16:52.210Z,86.36
2022-12-25T23:19:18.640Z,86.21
2022-12-25T23:21:45.081Z,86.85
2022-12-25T23:24:11.508Z,86.47
2022-12-25T23:26:37.974Z,85.60
2022-12-25T23:29:04.439Z,86.25
2022-12-25T23:31:30.942Z,86.71
2022-12-25T23:33:57.420Z,86.77
2022-12-25T23:36:23.939Z,86.35
2022-12-25T23:38:50.498Z,86.39
2022-12-25T23:41:16.905Z,86.69
2022-12-25T23:43:43.340Z,87.24
2022-12-25T23:46:09.822Z,86.40
2022-12-25T23:48:36.299Z,87.05
2022-12-25T23:51:02.741Z,86.89
2022-12-25T23:53:29.166Z,86.24
2022-12-25T23:55:56.113Z,86.55
2022-12-25T23:58:22.589Z,86.34
